Briarcliff, New York
Current Conditions -  °F | °C
As of 6:56 AM on Monday 20 Oct 2014 (Local Time) from KHPN Reporting Station
Clear Clear  
Wind Chill: 38°   Ceiling: Unl
Heat Index: 38°   Visibility: 10mi
Dew Point: 30°   Wind: 3mph
Humidity: 73%   Direction: 250°WSW
Pressure: 30.07"   Gusts: NA
Location:  41.1414°N, 73.8338°W
Report Text: KHPN 201056Z 25003KT 10SM CLR 03/M01 A3007 RMK AO2 SLP188 T00331011
Loading
Personal Weather Stations






























Interactive Weather Map
Tropical Storm Tracking
New forecast layout! Learn more

10-Day Weather Forecast

Advertisements
Track Severe Weather on mobile